createdAt,value
2018-08-18T00:00:12.014Z,2.92
2018-08-18T00:00:24.449Z,2.92
2018-08-18T00:00:36.874Z,2.92
2018-08-18T00:00:49.297Z,2.92
2018-08-18T00:01:01.728Z,2.92
2018-08-18T00:01:14.152Z,2.92
2018-08-18T00:01:26.589Z,2.92
2018-08-18T00:01:38.999Z,2.92
2018-08-18T00:01:51.413Z,2.92
2018-08-18T00:02:03.854Z,3.28
2018-08-18T00:02:16.260Z,3.28
2018-08-18T00:02:28.685Z,3.28
2018-08-18T00:02:41.284Z,3.28
2018-08-18T00:02:53.727Z,3.28
2018-08-18T00:03:06.184Z,3.28
2018-08-18T00:03:18.608Z,3.28
2018-08-18T00:03:31.023Z,3.28
2018-08-18T00:03:43.452Z,3.28
2018-08-18T00:03:55.863Z,3.28
2018-08-18T00:04:08.273Z,3.28
2018-08-18T00:04:20.685Z,3.28
2018-08-18T00:04:33.144Z,3.28
2018-08-18T00:04:45.566Z,3.28
2018-08-18T00:04:57.987Z,3.28
2018-08-18T00:05:10.411Z,3.28
2018-08-18T00:05:22.826Z,3.28
2018-08-18T00:05:35.256Z,3.28
2018-08-18T00:05:47.670Z,3.28
2018-08-18T00:06:00.094Z,3.28
2018-08-18T00:06:12.515Z,3.28
2018-08-18T00:06:24.937Z,3.28
2018-08-18T00:06:37.364Z,3.28
2018-08-18T00:06:49.773Z,3.28
2018-08-18T00:07:02.222Z,3.28
2018-08-18T00:07:14.630Z,3.28
2018-08-18T00:07:27.043Z,3.28
2018-08-18T00:07:39.517Z,3.28
2018-08-18T00:07:52.041Z,3.28
2018-08-18T00:08:04.486Z,3.28
2018-08-18T00:08:16.916Z,3.28
2018-08-18T00:08:29.444Z,3.28
2018-08-18T00:08:41.883Z,3.28
2018-08-18T00:08:54.306Z,3.28
2018-08-18T00:09:06.725Z,3.28
2018-08-18T00:09:19.146Z,3.28
2018-08-18T00:09:31.563Z,3.28
2018-08-18T00:09:43.983Z,3.28
2018-08-18T00:09:56.402Z,3.28
2018-08-18T00:10:08.854Z,3.28
2018-08-18T00:10:21.305Z,3.28
2018-08-18T00:10:33.884Z,3.28
2018-08-18T00:10:46.311Z,3.28
2018-08-18T00:10:58.785Z,3.28
2018-08-18T00:11:11.227Z,3.28
2018-08-18T00:11:23.655Z,3.28
2018-08-18T00:11:36.084Z,3.28
2018-08-18T00:11:48.519Z,3.28
2018-08-18T00:12:00.940Z,3.43
2018-08-18T00:12:13.381Z,3.43
2018-08-18T00:12:25.792Z,3.43
2018-08-18T00:12:38.182Z,3.43
2018-08-18T00:12:50.613Z,3.43
2018-08-18T00:13:03.056Z,3.43
2018-08-18T00:13:15.485Z,3.43
2018-08-18T00:13:27.903Z,3.43
2018-08-18T00:13:40.868Z,3.43
2018-08-18T00:13:53.324Z,3.43
2018-08-18T00:14:05.748Z,3.43
2018-08-18T00:14:18.175Z,3.43
2018-08-18T00:14:30.611Z,3.43
2018-08-18T00:14:43.046Z,3.43
2018-08-18T00:14:55.468Z,3.43
2018-08-18T00:15:07.894Z,3.43
2018-08-18T00:15:20.338Z,3.43
2018-08-18T00:15:32.770Z,3.43
2018-08-18T00:15:45.184Z,3.43
2018-08-18T00:15:57.603Z,3.43
2018-08-18T00:16:10.035Z,3.43
2018-08-18T00:16:22.441Z,3.43
2018-08-18T00:16:34.955Z,3.43
2018-08-18T00:16:47.449Z,3.43
2018-08-18T00:16:59.874Z,3.43
2018-08-18T00:17:12.325Z,3.43
2018-08-18T00:17:24.781Z,3.43
2018-08-18T00:17:37.198Z,3.43
2018-08-18T00:17:49.902Z,3.43
2018-08-18T00:18:02.318Z,3.43
2018-08-18T00:18:14.734Z,3.43
2018-08-18T00:18:27.158Z,3.43
2018-08-18T00:18:39.643Z,3.43
2018-08-18T00:18:52.063Z,3.43
2018-08-18T00:19:04.515Z,3.43
2018-08-18T00:19:16.925Z,3.43
2018-08-18T00:19:29.342Z,3.43
2018-08-18T00:19:41.768Z,3.43
2018-08-18T00:19:54.171Z,3.43
2018-08-18T00:20:06.582Z,3.43
2018-08-18T00:20:19.075Z,3.43
2018-08-18T00:20:31.497Z,3.43
2018-08-18T00:20:44.004Z,3.43
2018-08-18T00:20:56.434Z,3.43
2018-08-18T00:21:08.850Z,3.43
2018-08-18T00:21:21.293Z,3.43
2018-08-18T00:21:33.745Z,3.43
2018-08-18T00:21:46.171Z,3.43
2018-08-18T00:21:58.590Z,3.51
2018-08-18T00:22:11.060Z,3.51
2018-08-18T00:22:23.640Z,3.51
2018-08-18T00:22:36.053Z,3.51
2018-08-18T00:22:48.464Z,3.51
2018-08-18T00:23:00.884Z,3.51
2018-08-18T00:23:13.287Z,3.51
2018-08-18T00:23:25.713Z,3.51
2018-08-18T00:23:38.141Z,3.51
2018-08-18T00:23:50.583Z,3.51
2018-08-18T00:24:02.992Z,3.51
2018-08-18T00:24:15.393Z,3.51
2018-08-18T00:24:27.798Z,3.51
2018-08-18T00:24:40.208Z,3.51
2018-08-18T00:24:52.691Z,3.51
2018-08-18T00:25:05.285Z,3.51
2018-08-18T00:25:17.736Z,3.51
2018-08-18T00:25:30.171Z,3.51
2018-08-18T00:25:42.598Z,3.51
2018-08-18T00:25:54.998Z,3.51
2018-08-18T00:26:07.394Z,3.51
2018-08-18T00:26:19.805Z,3.51
2018-08-18T00:26:32.216Z,3.51
2018-08-18T00:26:44.781Z,3.51
2018-08-18T00:26:57.201Z,3.51
2018-08-18T00:27:09.630Z,3.51
2018-08-18T00:27:22.228Z,3.51
2018-08-18T00:27:34.645Z,3.51
2018-08-18T00:27:47.066Z,3.51
2018-08-18T00:27:59.479Z,3.51
2018-08-18T00:28:11.889Z,3.51
2018-08-18T00:28:24.298Z,3.51
2018-08-18T00:28:36.689Z,3.51
2018-08-18T00:28:49.096Z,3.51
2018-08-18T00:29:01.504Z,3.51
2018-08-18T00:29:13.927Z,3.51
2018-08-18T00:29:26.653Z,3.51
2018-08-18T00:29:39.065Z,3.51
2018-08-18T00:29:51.492Z,3.51
2018-08-18T00:30:03.899Z,3.51
2018-08-18T00:30:16.325Z,3.51
2018-08-18T00:30:28.778Z,3.51
2018-08-18T00:30:41.207Z,3.51
2018-08-18T00:30:53.621Z,3.51
2018-08-18T00:31:06.029Z,3.51
2018-08-18T00:31:18.426Z,3.51
2018-08-18T00:31:30.829Z,3.51
2018-08-18T00:31:43.248Z,3.51
2018-08-18T00:31:55.693Z,3.51
2018-08-18T00:32:08.114Z,2.55
2018-08-18T00:32:20.524Z,2.55
2018-08-18T00:32:32.929Z,2.55
2018-08-18T00:32:45.460Z,2.55
2018-08-18T00:32:57.888Z,2.55
2018-08-18T00:33:10.308Z,2.55
2018-08-18T00:33:22.747Z,2.55
2018-08-18T00:33:35.167Z,2.55
2018-08-18T00:33:47.582Z,2.55
2018-08-18T00:33:59.970Z,2.55
2018-08-18T00:34:12.649Z,2.55
2018-08-18T00:34:26.203Z,2.55
2018-08-18T00:34:38.718Z,2.55
2018-08-18T00:34:51.142Z,2.55
2018-08-18T00:35:03.575Z,2.55
2018-08-18T00:35:15.989Z,2.55
2018-08-18T00:35:28.620Z,2.55
2018-08-18T00:35:41.056Z,2.55
2018-08-18T00:35:53.477Z,2.55
2018-08-18T00:36:05.961Z,2.55
2018-08-18T00:36:18.429Z,2.55
2018-08-18T00:36:30.847Z,2.55
2018-08-18T00:36:43.324Z,2.55
2018-08-18T00:36:55.866Z,2.55
2018-08-18T00:37:08.284Z,2.55
2018-08-18T00:37:20.704Z,2.55
2018-08-18T00:37:33.134Z,2.55
2018-08-18T00:37:45.617Z,2.55
2018-08-18T00:37:58.085Z,2.55
2018-08-18T00:38:10.491Z,2.55
2018-08-18T00:38:22.898Z,2.55
2018-08-18T00:38:35.299Z,2.55
2018-08-18T00:38:47.858Z,2.55
2018-08-18T00:39:00.262Z,2.55
2018-08-18T00:39:12.690Z,2.55
2018-08-18T00:39:25.112Z,2.55
2018-08-18T00:39:37.535Z,2.55
2018-08-18T00:39:50.014Z,2.55
2018-08-18T00:40:02.502Z,2.55
2018-08-18T00:40:15.059Z,2.55
2018-08-18T00:40:27.562Z,2.55
2018-08-18T00:40:39.989Z,2.55
2018-08-18T00:40:52.424Z,2.55
2018-08-18T00:41:04.843Z,2.55
2018-08-18T00:41:17.314Z,2.55
2018-08-18T00:41:29.730Z,2.55
2018-08-18T00:41:42.135Z,2.55
2018-08-18T00:41:54.570Z,2.55
2018-08-18T00:42:06.993Z,2.75
2018-08-18T00:42:19.426Z,2.75
2018-08-18T00:42:31.856Z,2.75
2018-08-18T00:42:44.324Z,2.75
2018-08-18T00:42:56.765Z,2.75
2018-08-18T00:43:09.229Z,2.75
2018-08-18T00:43:21.702Z,2.75
2018-08-18T00:43:34.135Z,2.75
2018-08-18T00:43:46.545Z,2.75
2018-08-18T00:43:58.959Z,2.75
2018-08-18T00:44:11.370Z,2.75
2018-08-18T00:44:23.809Z,2.75
2018-08-18T00:44:36.279Z,2.75
2018-08-18T00:44:48.734Z,2.75
2018-08-18T00:45:01.145Z,2.75
2018-08-18T00:45:13.594Z,2.75
2018-08-18T00:45:26.053Z,2.75
2018-08-18T00:45:38.484Z,2.75
2018-08-18T00:45:50.914Z,2.75
2018-08-18T00:46:03.334Z,2.75
2018-08-18T00:46:15.757Z,2.75
2018-08-18T00:46:28.186Z,2.75
2018-08-18T00:46:40.591Z,2.75
2018-08-18T00:46:53.014Z,2.75
2018-08-18T00:47:05.459Z,2.75
2018-08-18T00:47:17.886Z,2.75
2018-08-18T00:47:30.303Z,2.75
2018-08-18T00:47:42.788Z,2.75
2018-08-18T00:47:55.204Z,2.75
2018-08-18T00:48:07.626Z,2.75
2018-08-18T00:48:20.051Z,2.75
2018-08-18T00:48:32.460Z,2.75
2018-08-18T00:48:44.860Z,2.75
2018-08-18T00:48:57.286Z,2.75
2018-08-18T00:49:09.786Z,2.75
2018-08-18T00:49:22.221Z,2.75
2018-08-18T00:49:34.657Z,2.75
2018-08-18T00:49:47.066Z,2.75
2018-08-18T00:49:59.488Z,2.75
2018-08-18T00:50:11.905Z,2.75
2018-08-18T00:50:24.332Z,2.75
2018-08-18T00:50:36.758Z,2.75
2018-08-18T00:50:49.179Z,2.75
2018-08-18T00:51:01.600Z,2.75
2018-08-18T00:51:14.085Z,2.75
2018-08-18T00:51:26.503Z,2.75
2018-08-18T00:51:38.920Z,2.75
2018-08-18T00:51:51.344Z,2.75
2018-08-18T00:52:03.920Z,2.95
2018-08-18T00:52:16.339Z,2.95
2018-08-18T00:52:28.764Z,2.95
2018-08-18T00:52:41.221Z,2.95
2018-08-18T00:52:53.644Z,2.95
2018-08-18T00:53:06.068Z,2.95
2018-08-18T00:53:18.516Z,2.95
2018-08-18T00:53:30.942Z,2.95
2018-08-18T00:53:43.365Z,2.95
2018-08-18T00:53:55.776Z,2.95
2018-08-18T00:54:08.277Z,2.95
2018-08-18T00:54:20.683Z,2.95
2018-08-18T00:54:33.092Z,2.95
2018-08-18T00:54:45.506Z,2.95
2018-08-18T00:54:57.913Z,2.95
2018-08-18T00:55:10.337Z,2.95
2018-08-18T00:55:22.760Z,2.95
2018-08-18T00:55:35.197Z,2.95
2018-08-18T00:55:47.620Z,2.95
2018-08-18T00:56:00.038Z,2.95
2018-08-18T00:56:12.551Z,2.95
2018-08-18T00:56:24.993Z,2.95
2018-08-18T00:56:37.417Z,2.95
2018-08-18T00:56:49.844Z,2.95
2018-08-18T00:57:02.246Z,2.95
2018-08-18T00:57:14.664Z,2.95
2018-08-18T00:57:27.073Z,2.95
2018-08-18T00:57:39.538Z,2.95
2018-08-18T00:57:51.954Z,2.95
2018-08-18T00:58:04.380Z,2.95
2018-08-18T00:58:16.802Z,2.95
2018-08-18T00:58:29.217Z,2.95
2018-08-18T00:58:41.639Z,2.95
2018-08-18T00:58:54.061Z,2.95
2018-08-18T00:59:06.767Z,2.95
2018-08-18T00:59:19.179Z,2.95
2018-08-18T00:59:31.598Z,2.95
2018-08-18T00:59:43.998Z,2.95
2018-08-18T00:59:56.414Z,2.95
2018-08-18T01:00:08.870Z,2.95
2018-08-18T01:00:21.331Z,2.95
2018-08-18T01:00:33.777Z,2.95
2018-08-18T01:00:46.226Z,2.95
2018-08-18T01:00:58.653Z,2.95
2018-08-18T01:01:11.098Z,2.95
2018-08-18T01:01:23.533Z,2.95
2018-08-18T01:01:35.938Z,2.95
2018-08-18T01:01:48.368Z,2.95
2018-08-18T01:02:00.805Z,2.95
2018-08-18T01:02:13.246Z,3.45
2018-08-18T01:02:25.696Z,3.45
2018-08-18T01:02:38.301Z,3.45
2018-08-18T01:02:50.786Z,3.45
2018-08-18T01:03:03.215Z,3.45
2018-08-18T01:03:15.682Z,3.45
2018-08-18T01:03:28.135Z,3.45
2018-08-18T01:03:40.597Z,3.45
2018-08-18T01:03:53.044Z,3.45
2018-08-18T01:04:05.470Z,3.45
2018-08-18T01:04:17.890Z,3.45
2018-08-18T01:04:30.302Z,3.45
2018-08-18T01:04:42.705Z,3.45
2018-08-18T01:04:55.114Z,3.45
2018-08-18T01:05:07.567Z,3.45
2018-08-18T01:05:19.989Z,3.45
2018-08-18T01:05:32.409Z,3.45
2018-08-18T01:05:44.818Z,3.45
2018-08-18T01:05:57.224Z,3.45
2018-08-18T01:06:09.643Z,3.45
2018-08-18T01:06:22.075Z,3.45
2018-08-18T01:06:34.503Z,3.45
2018-08-18T01:06:46.927Z,3.45
2018-08-18T01:06:59.364Z,3.45
2018-08-18T01:07:11.770Z,3.45
2018-08-18T01:07:24.188Z,3.45
2018-08-18T01:07:36.627Z,3.45
2018-08-18T01:07:49.045Z,3.45
2018-08-18T01:08:01.452Z,3.45
2018-08-18T01:08:13.878Z,3.45
2018-08-18T01:08:26.302Z,3.45
2018-08-18T01:08:38.836Z,3.45
2018-08-18T01:08:51.245Z,3.45
2018-08-18T01:09:03.670Z,3.45
2018-08-18T01:09:16.083Z,3.45
2018-08-18T01:09:28.512Z,3.45
2018-08-18T01:09:40.914Z,3.45
2018-08-18T01:09:53.387Z,3.45
2018-08-18T01:10:05.882Z,3.45
2018-08-18T01:10:18.300Z,3.45
2018-08-18T01:10:30.724Z,3.45
2018-08-18T01:10:43.165Z,3.45
2018-08-18T01:10:56.480Z,3.45
2018-08-18T01:11:10.671Z,3.45
2018-08-18T01:11:24.479Z,3.45
2018-08-18T01:11:39.205Z,3.45
2018-08-18T01:11:53.629Z,3.45
2018-08-18T01:12:08.333Z,2.83
2018-08-18T01:12:22.473Z,2.83
2018-08-18T01:12:37.327Z,2.83
2018-08-18T01:12:51.694Z,2.83
2018-08-18T01:13:05.259Z,2.83
2018-08-18T01:13:18.576Z,2.83
2018-08-18T01:13:31.432Z,2.83
2018-08-18T01:13:44.800Z,2.83
2018-08-18T01:13:59.152Z,2.83
2018-08-18T01:14:13.363Z,2.83
2018-08-18T01:14:27.904Z,2.83
2018-08-18T01:14:41.472Z,2.83
2018-08-18T01:14:55.418Z,2.83
2018-08-18T01:15:08.827Z,2.83
2018-08-18T01:15:21.253Z,2.83
2018-08-18T01:15:33.943Z,2.83
2018-08-18T01:15:47.632Z,2.83
2018-08-18T01:16:00.287Z,2.83
2018-08-18T01:16:12.722Z,2.83
2018-08-18T01:16:25.176Z,2.83
2018-08-18T01:16:38.254Z,2.83
2018-08-18T01:16:50.924Z,2.83
2018-08-18T01:17:03.336Z,2.83
2018-08-18T01:17:15.771Z,2.83
2018-08-18T01:17:28.183Z,2.83
2018-08-18T01:17:40.728Z,2.83
2018-08-18T01:17:53.318Z,2.83
2018-08-18T01:18:05.807Z,2.83
2018-08-18T01:18:18.243Z,2.83
2018-08-18T01:18:30.670Z,2.83
2018-08-18T01:18:43.131Z,2.83
2018-08-18T01:18:55.585Z,2.83
2018-08-18T01:19:08.009Z,2.83
2018-08-18T01:19:20.447Z,2.83
2018-08-18T01:19:32.851Z,2.83
2018-08-18T01:19:45.245Z,2.83
2018-08-18T01:19:57.656Z,2.83
2018-08-18T01:20:10.094Z,2.83
2018-08-18T01:20:22.499Z,2.83
2018-08-18T01:20:34.906Z,2.83
2018-08-18T01:20:47.564Z,2.83
2018-08-18T01:20:59.988Z,2.83
2018-08-18T01:21:12.417Z,2.83
2018-08-18T01:21:25.133Z,2.83
2018-08-18T01:21:38.555Z,2.83
2018-08-18T01:21:51.095Z,2.83
2018-08-18T01:22:03.515Z,2.83
2018-08-18T01:22:15.998Z,3.24
2018-08-18T01:22:28.408Z,3.24
2018-08-18T01:22:40.838Z,3.24
2018-08-18T01:22:53.274Z,3.24
2018-08-18T01:23:05.730Z,3.24
2018-08-18T01:23:18.166Z,3.24
2018-08-18T01:23:30.620Z,3.24
2018-08-18T01:23:43.061Z,3.24
2018-08-18T01:23:55.487Z,3.24
2018-08-18T01:24:07.924Z,3.24
2018-08-18T01:24:20.385Z,3.24
2018-08-18T01:24:32.814Z,3.24
2018-08-18T01:24:45.255Z,3.24
2018-08-18T01:24:57.724Z,3.24
2018-08-18T01:25:10.141Z,3.24
2018-08-18T01:25:22.545Z,3.24
2018-08-18T01:25:34.952Z,3.24
2018-08-18T01:25:47.443Z,3.24
2018-08-18T01:25:59.887Z,3.24
2018-08-18T01:26:12.369Z,3.24
2018-08-18T01:26:24.795Z,3.24
2018-08-18T01:26:37.294Z,3.24
2018-08-18T01:26:49.699Z,3.24
2018-08-18T01:27:02.419Z,3.24
2018-08-18T01:27:15.966Z,3.24
2018-08-18T01:27:28.556Z,3.24
2018-08-18T01:27:40.987Z,3.24
2018-08-18T01:27:53.438Z,3.24
2018-08-18T01:28:05.857Z,3.24
2018-08-18T01:28:18.275Z,3.24
2018-08-18T01:28:30.708Z,3.24
2018-08-18T01:28:43.153Z,3.24
2018-08-18T01:28:55.556Z,3.24
2018-08-18T01:29:07.967Z,3.24
2018-08-18T01:29:20.395Z,3.24
2018-08-18T01:29:32.813Z,3.24
2018-08-18T01:29:45.255Z,3.24
2018-08-18T01:29:57.686Z,3.24
2018-08-18T01:30:10.103Z,3.24
2018-08-18T01:30:22.536Z,3.24
2018-08-18T01:30:34.987Z,3.24
2018-08-18T01:30:47.428Z,3.24
2018-08-18T01:30:59.864Z,3.24
2018-08-18T01:31:12.324Z,3.24
2018-08-18T01:31:24.789Z,3.24
2018-08-18T01:31:37.208Z,3.24
2018-08-18T01:31:49.667Z,3.24
2018-08-18T01:32:02.085Z,3.24
2018-08-18T01:32:14.476Z,3.42
2018-08-18T01:32:27.053Z,3.42
2018-08-18T01:32:39.477Z,3.42
2018-08-18T01:32:51.990Z,3.42
2018-08-18T01:33:04.407Z,3.42
2018-08-18T01:33:16.837Z,3.42
2018-08-18T01:33:29.248Z,3.42
2018-08-18T01:33:41.684Z,3.42
2018-08-18T01:33:54.101Z,3.42
2018-08-18T01:34:06.520Z,3.42
2018-08-18T01:34:18.918Z,3.42
2018-08-18T01:34:31.341Z,3.42
2018-08-18T01:34:43.755Z,3.42
2018-08-18T01:34:56.210Z,3.42
2018-08-18T01:35:08.624Z,3.42
2018-08-18T01:35:21.028Z,3.42
2018-08-18T01:35:33.448Z,3.42
2018-08-18T01:35:45.855Z,3.42
2018-08-18T01:35:58.263Z,3.42
2018-08-18T01:36:10.676Z,3.42
2018-08-18T01:36:23.111Z,3.42
2018-08-18T01:36:35.543Z,3.42
2018-08-18T01:36:47.968Z,3.42
2018-08-18T01:37:00.376Z,3.42
2018-08-18T01:37:12.778Z,3.42
2018-08-18T01:37:25.334Z,3.42
2018-08-18T01:37:37.756Z,3.42
2018-08-18T01:37:50.157Z,3.42
2018-08-18T01:38:02.593Z,3.42
2018-08-18T01:38:15.018Z,3.42
2018-08-18T01:38:27.465Z,3.42
2018-08-18T01:38:39.929Z,3.42
2018-08-18T01:38:52.371Z,3.42
2018-08-18T01:39:04.883Z,3.42
2018-08-18T01:39:17.458Z,3.42
2018-08-18T01:39:29.868Z,3.42
2018-08-18T01:39:42.328Z,3.42
2018-08-18T01:39:54.753Z,3.42
2018-08-18T01:40:07.176Z,3.42
2018-08-18T01:40:19.716Z,3.42
2018-08-18T01:40:32.141Z,3.42
2018-08-18T01:40:44.564Z,3.42
2018-08-18T01:40:56.966Z,3.42
2018-08-18T01:41:09.402Z,3.42
2018-08-18T01:41:21.845Z,3.42
2018-08-18T01:41:34.310Z,3.42
2018-08-18T01:41:46.719Z,3.42
2018-08-18T01:41:59.175Z,3.42
2018-08-18T01:42:11.576Z,3.13
2018-08-18T01:42:23.989Z,3.13
2018-08-18T01:42:36.410Z,3.13
2018-08-18T01:42:48.846Z,3.13
2018-08-18T01:43:01.268Z,3.13
2018-08-18T01:43:13.681Z,3.13
2018-08-18T01:43:26.099Z,3.13
2018-08-18T01:43:38.533Z,3.13
2018-08-18T01:43:51.649Z,3.13
2018-08-18T01:44:04.813Z,3.13
2018-08-18T01:44:17.305Z,3.13
2018-08-18T01:44:29.748Z,3.13
2018-08-18T01:44:42.144Z,3.13
2018-08-18T01:44:54.595Z,3.13
2018-08-18T01:45:07.041Z,3.13
2018-08-18T01:45:19.508Z,3.13
2018-08-18T01:45:31.935Z,3.13
2018-08-18T01:45:44.357Z,3.13
2018-08-18T01:45:56.948Z,3.13
2018-08-18T01:46:09.364Z,3.13
2018-08-18T01:46:21.777Z,3.13
2018-08-18T01:46:34.196Z,3.13
2018-08-18T01:46:46.595Z,3.13
2018-08-18T01:46:59.024Z,3.13
2018-08-18T01:47:11.450Z,3.13
2018-08-18T01:47:23.854Z,3.13
2018-08-18T01:47:36.272Z,3.13
2018-08-18T01:47:48.672Z,3.13
2018-08-18T01:48:01.075Z,3.13
2018-08-18T01:48:13.502Z,3.13
2018-08-18T01:48:25.920Z,3.13
2018-08-18T01:48:38.320Z,3.13
2018-08-18T01:48:50.734Z,3.13
2018-08-18T01:49:03.302Z,3.13
2018-08-18T01:49:15.716Z,3.13
2018-08-18T01:49:28.160Z,3.13
2018-08-18T01:49:40.553Z,3.13
2018-08-18T01:49:52.987Z,3.13
2018-08-18T01:50:05.471Z,3.13
2018-08-18T01:50:17.887Z,3.13
2018-08-18T01:50:30.299Z,3.13
2018-08-18T01:50:42.777Z,3.13
2018-08-18T01:50:55.198Z,3.13
2018-08-18T01:51:07.613Z,3.13
2018-08-18T01:51:20.032Z,3.13
2018-08-18T01:51:32.436Z,3.13
2018-08-18T01:51:44.914Z,3.13
2018-08-18T01:51:57.538Z,3.13
2018-08-18T01:52:09.951Z,3.13
2018-08-18T01:52:22.365Z,2.63
2018-08-18T01:52:34.771Z,2.63
2018-08-18T01:52:47.176Z,2.63
2018-08-18T01:52:59.589Z,2.63
2018-08-18T01:53:11.986Z,2.63
2018-08-18T01:53:24.391Z,2.63
2018-08-18T01:53:36.819Z,2.63
2018-08-18T01:53:49.235Z,2.63
2018-08-18T01:54:01.789Z,2.63
2018-08-18T01:54:14.207Z,2.63
2018-08-18T01:54:26.610Z,2.63
2018-08-18T01:54:39.009Z,2.63
2018-08-18T01:54:51.449Z,2.63
2018-08-18T01:55:03.874Z,2.63
2018-08-18T01:55:16.315Z,2.63
2018-08-18T01:55:28.740Z,2.63
2018-08-18T01:55:41.140Z,2.63
2018-08-18T01:55:53.558Z,2.63
2018-08-18T01:56:05.985Z,2.63
2018-08-18T01:56:18.393Z,2.63
2018-08-18T01:56:30.843Z,2.63
2018-08-18T01:56:43.246Z,2.63
2018-08-18T01:56:55.650Z,2.63
2018-08-18T01:57:08.104Z,2.63
2018-08-18T01:57:20.528Z,2.63
2018-08-18T01:57:32.956Z,2.63
2018-08-18T01:57:45.386Z,2.63
2018-08-18T01:57:57.819Z,2.63
2018-08-18T01:58:10.296Z,2.63
2018-08-18T01:58:22.719Z,2.63
2018-08-18T01:58:35.134Z,2.63
2018-08-18T01:58:47.561Z,2.63
2018-08-18T01:58:59.975Z,2.63
2018-08-18T01:59:12.393Z,2.63
2018-08-18T01:59:24.783Z,2.63
2018-08-18T01:59:37.207Z,2.63
2018-08-18T01:59:49.661Z,2.63
2018-08-18T02:00:02.089Z,2.63
2018-08-18T02:00:14.540Z,2.63
2018-08-18T02:00:27.069Z,2.63
2018-08-18T02:00:39.540Z,2.63
2018-08-18T02:00:51.978Z,2.63
2018-08-18T02:01:04.398Z,2.63
2018-08-18T02:01:16.841Z,2.63
2018-08-18T02:01:29.263Z,2.63
2018-08-18T02:01:41.702Z,2.63
2018-08-18T02:01:54.143Z,2.63
2018-08-18T02:02:06.814Z,2.63
2018-08-18T02:02:19.242Z,3.43
2018-08-18T02:02:31.685Z,3.43
2018-08-18T02:02:44.313Z,3.43
2018-08-18T02:02:56.750Z,3.43
2018-08-18T02:03:09.192Z,3.43
2018-08-18T02:03:21.625Z,3.43
2018-08-18T02:03:34.059Z,3.43
2018-08-18T02:03:46.489Z,3.43
2018-08-18T02:03:58.892Z,3.43
2018-08-18T02:04:11.311Z,3.43
2018-08-18T02:04:23.735Z,3.43
2018-08-18T02:04:36.155Z,3.43
2018-08-18T02:04:48.572Z,3.43
2018-08-18T02:05:00.992Z,3.43
2018-08-18T02:05:13.442Z,3.43
2018-08-18T02:05:25.898Z,3.43
2018-08-18T02:05:38.337Z,3.43
2018-08-18T02:05:50.757Z,3.43
2018-08-18T02:06:03.176Z,3.43
2018-08-18T02:06:15.574Z,3.43
2018-08-18T02:06:28.042Z,3.43
2018-08-18T02:06:40.476Z,3.43
2018-08-18T02:06:52.899Z,3.43
2018-08-18T02:07:05.381Z,3.43
2018-08-18T02:07:17.813Z,3.43
2018-08-18T02:07:30.228Z,3.43
2018-08-18T02:07:42.634Z,3.43
2018-08-18T02:07:55.053Z,3.43
2018-08-18T02:08:07.484Z,3.43
2018-08-18T02:08:19.936Z,3.43
2018-08-18T02:08:32.487Z,3.43
2018-08-18T02:08:44.894Z,3.43
2018-08-18T02:08:57.295Z,3.43
2018-08-18T02:09:09.710Z,3.43
2018-08-18T02:09:22.139Z,3.43
2018-08-18T02:09:34.606Z,3.43
2018-08-18T02:09:47.027Z,3.43
2018-08-18T02:09:59.501Z,3.43
2018-08-18T02:10:11.918Z,3.43
2018-08-18T02:10:24.353Z,3.43
2018-08-18T02:10:36.781Z,3.43
2018-08-18T02:10:49.207Z,3.43
2018-08-18T02:11:01.660Z,3.43
2018-08-18T02:11:14.221Z,3.43
2018-08-18T02:11:26.643Z,3.43
2018-08-18T02:11:39.195Z,3.43
2018-08-18T02:11:51.612Z,3.43
2018-08-18T02:12:04.029Z,3.43
2018-08-18T02:12:16.460Z,2.93
2018-08-18T02:12:28.900Z,2.93
2018-08-18T02:12:41.324Z,2.93
2018-08-18T02:12:53.727Z,2.93
2018-08-18T02:13:06.160Z,2.93
2018-08-18T02:13:18.622Z,2.93
2018-08-18T02:13:31.084Z,2.93
2018-08-18T02:13:43.501Z,2.93
2018-08-18T02:13:55.919Z,2.93
2018-08-18T02:14:08.376Z,2.93
2018-08-18T02:14:20.778Z,2.93
2018-08-18T02:14:33.177Z,2.93
2018-08-18T02:14:45.588Z,2.93
2018-08-18T02:14:58.019Z,2.93
2018-08-18T02:15:10.436Z,2.93
2018-08-18T02:15:22.831Z,2.93
2018-08-18T02:15:35.300Z,2.93
2018-08-18T02:15:47.720Z,2.93
2018-08-18T02:16:00.136Z,2.93
2018-08-18T02:16:12.709Z,2.93
2018-08-18T02:16:25.128Z,2.93
2018-08-18T02:16:37.585Z,2.93
2018-08-18T02:16:50.438Z,2.93
2018-08-18T02:17:02.882Z,2.93
2018-08-18T02:17:15.302Z,2.93
2018-08-18T02:17:27.731Z,2.93
2018-08-18T02:17:40.241Z,2.93
2018-08-18T02:17:52.825Z,2.93
2018-08-18T02:18:05.241Z,2.93
2018-08-18T02:18:17.673Z,2.93
2018-08-18T02:18:30.086Z,2.93
2018-08-18T02:18:42.511Z,2.93
2018-08-18T02:18:54.924Z,2.93
2018-08-18T02:19:07.332Z,2.93
2018-08-18T02:19:19.756Z,2.93
2018-08-18T02:19:32.201Z,2.93
2018-08-18T02:19:44.630Z,2.93
2018-08-18T02:19:57.472Z,2.93
2018-08-18T02:20:11.581Z,2.93
2018-08-18T02:20:24.005Z,2.93
2018-08-18T02:20:36.445Z,2.93
2018-08-18T02:20:48.942Z,2.93
2018-08-18T02:21:01.370Z,2.93
2018-08-18T02:21:13.777Z,2.93
2018-08-18T02:21:26.195Z,2.93
2018-08-18T02:21:38.603Z,2.93
2018-08-18T02:21:51.032Z,2.93
2018-08-18T02:22:03.451Z,2.93
2018-08-18T02:22:16.045Z,4
2018-08-18T02:22:28.484Z,4
2018-08-18T02:22:40.898Z,4
2018-08-18T02:22:53.323Z,4
2018-08-18T02:23:05.768Z,4
2018-08-18T02:23:18.179Z,4
2018-08-18T02:23:30.614Z,4
2018-08-18T02:23:43.010Z,4
2018-08-18T02:23:55.411Z,4
2018-08-18T02:24:07.831Z,4
2018-08-18T02:24:20.241Z,4
2018-08-18T02:24:32.645Z,4
2018-08-18T02:24:45.117Z,4
2018-08-18T02:24:57.562Z,4
2018-08-18T02:25:10.240Z,4
2018-08-18T02:25:22.649Z,4
2018-08-18T02:25:35.062Z,4
2018-08-18T02:25:47.507Z,4
2018-08-18T02:25:59.921Z,4
2018-08-18T02:26:12.355Z,4
2018-08-18T02:26:24.824Z,4
2018-08-18T02:26:37.392Z,4
2018-08-18T02:26:49.803Z,4
2018-08-18T02:27:02.199Z,4
2018-08-18T02:27:14.622Z,4
2018-08-18T02:27:27.172Z,4
2018-08-18T02:27:39.581Z,4
2018-08-18T02:27:52.049Z,4
2018-08-18T02:28:04.475Z,4
2018-08-18T02:28:16.877Z,4
2018-08-18T02:28:29.296Z,4
2018-08-18T02:28:41.707Z,4
2018-08-18T02:28:54.126Z,4
2018-08-18T02:29:06.545Z,4
2018-08-18T02:29:18.955Z,4
2018-08-18T02:29:31.371Z,4
2018-08-18T02:29:43.786Z,4
2018-08-18T02:29:56.252Z,4
2018-08-18T02:30:08.809Z,4
2018-08-18T02:30:21.320Z,4
2018-08-18T02:30:33.765Z,4
2018-08-18T02:30:46.209Z,4
2018-08-18T02:30:58.605Z,4
2018-08-18T02:31:11.053Z,4
2018-08-18T02:31:23.538Z,4
2018-08-18T02:31:35.951Z,4
2018-08-18T02:31:48.395Z,4
2018-08-18T02:32:00.821Z,4
2018-08-18T02:32:13.241Z,4
2018-08-18T02:32:25.666Z,4
2018-08-18T02:32:38.081Z,2.6
2018-08-18T02:32:50.527Z,2.6
2018-08-18T02:33:02.997Z,2.6
2018-08-18T02:33:15.418Z,2.6
2018-08-18T02:33:27.846Z,2.6
2018-08-18T02:33:40.294Z,2.6
2018-08-18T02:33:52.706Z,2.6
2018-08-18T02:34:05.122Z,2.6
2018-08-18T02:34:17.539Z,2.6
2018-08-18T02:34:29.972Z,2.6
2018-08-18T02:34:42.377Z,2.6
2018-08-18T02:34:54.804Z,2.6
2018-08-18T02:35:07.341Z,2.6
2018-08-18T02:35:19.776Z,2.6
2018-08-18T02:35:32.213Z,2.6
2018-08-18T02:35:44.623Z,2.6
2018-08-18T02:35:57.041Z,2.6
2018-08-18T02:36:09.433Z,2.6
2018-08-18T02:36:21.867Z,2.6
2018-08-18T02:36:34.328Z,2.6
2018-08-18T02:36:46.750Z,2.6
2018-08-18T02:36:59.174Z,2.6
2018-08-18T02:37:11.609Z,2.6
2018-08-18T02:37:24.030Z,2.6
2018-08-18T02:37:36.472Z,2.6
2018-08-18T02:37:48.906Z,2.6
2018-08-18T02:38:01.324Z,2.6
2018-08-18T02:38:13.792Z,2.6
2018-08-18T02:38:26.217Z,2.6
2018-08-18T02:38:38.628Z,2.6
2018-08-18T02:38:51.047Z,2.6
2018-08-18T02:39:03.493Z,2.6
2018-08-18T02:39:15.928Z,2.6
2018-08-18T02:39:28.346Z,2.6
2018-08-18T02:39:40.756Z,2.6
2018-08-18T02:39:53.323Z,2.6
2018-08-18T02:40:06.391Z,2.6
2018-08-18T02:40:20.197Z,2.6
2018-08-18T02:40:32.641Z,2.6
2018-08-18T02:40:45.053Z,2.6
2018-08-18T02:40:57.466Z,2.6
2018-08-18T02:41:09.890Z,2.6
2018-08-18T02:41:22.323Z,2.6
2018-08-18T02:41:34.754Z,2.6
2018-08-18T02:41:47.165Z,2.6
2018-08-18T02:41:59.681Z,2.6
2018-08-18T02:42:12.111Z,2.6
2018-08-18T02:42:24.541Z,2.6
2018-08-18T02:42:36.982Z,3.13
2018-08-18T02:42:49.403Z,3.13
2018-08-18T02:43:01.845Z,3.13
2018-08-18T02:43:14.260Z,3.13
2018-08-18T02:43:26.762Z,3.13
2018-08-18T02:43:39.187Z,3.13
2018-08-18T02:43:51.625Z,3.13
2018-08-18T02:44:04.188Z,3.13
2018-08-18T02:44:16.612Z,3.13
2018-08-18T02:44:29.068Z,3.13
2018-08-18T02:44:41.488Z,3.13
2018-08-18T02:44:53.941Z,3.13
2018-08-18T02:45:06.393Z,3.13
2018-08-18T02:45:18.844Z,3.13
2018-08-18T02:45:31.268Z,3.13
2018-08-18T02:45:43.675Z,3.13
2018-08-18T02:45:56.108Z,3.13
2018-08-18T02:46:08.531Z,3.13
2018-08-18T02:46:20.952Z,3.13
2018-08-18T02:46:33.385Z,3.13
2018-08-18T02:46:45.819Z,3.13
2018-08-18T02:46:58.266Z,3.13
2018-08-18T02:47:10.719Z,3.13
2018-08-18T02:47:23.153Z,3.13
2018-08-18T02:47:35.606Z,3.13
2018-08-18T02:47:48.091Z,3.13